sensor_id;sensor_type;location;lat;lon;timestamp;P1;durP1;ratioP1;P2;durP2;ratioP2
9563;SDS011;4820;50.870;4.702;2023-04-24T00:00:10;12.98;;;9.75;;
9563;SDS011;4820;50.870;4.702;2023-04-24T00:02:40;12.57;;;9.32;;
9563;SDS011;4820;50.870;4.702;2023-04-24T00:05:12;14.13;;;9.73;;
9563;SDS011;4820;50.870;4.702;2023-04-24T00:07:43;15.05;;;10.57;;
9563;SDS011;4820;50.870;4.702;2023-04-24T00:10:10;10.43;;;9.32;;
9563;SDS011;4820;50.870;4.702;2023-04-24T00:12:36;14.32;;;10.57;;
9563;SDS011;4820;50.870;4.702;2023-04-24T00:15:02;14.15;;;10.30;;
9563;SDS011;4820;50.870;4.702;2023-04-24T00:17:28;14.85;;;10.25;;
9563;SDS011;4820;50.870;4.702;2023-04-24T00:19:54;13.68;;;10.55;;
9563;SDS011;4820;50.870;4.702;2023-04-24T00:22:29;16.75;;;10.50;;
9563;SDS011;4820;50.870;4.702;2023-04-24T00:24:55;11.85;;;9.77;;
9563;SDS011;4820;50.870;4.702;2023-04-24T00:27:21;15.30;;;10.70;;
9563;SDS011;4820;50.870;4.702;2023-04-24T00:29:47;12.57;;;11.15;;
9563;SDS011;4820;50.870;4.702;2023-04-24T00:32:13;14.93;;;10.23;;
9563;SDS011;4820;50.870;4.702;2023-04-24T00:34:39;18.92;;;11.30;;
9563;SDS011;4820;50.870;4.702;2023-04-24T00:37:05;12.80;;;9.48;;
9563;SDS011;4820;50.870;4.702;2023-04-24T00:39:31;13.90;;;10.05;;
9563;SDS011;4820;50.870;4.702;2023-04-24T00:41:57;15.95;;;10.07;;
9563;SDS011;4820;50.870;4.702;2023-04-24T00:44:23;12.70;;;10.45;;
9563;SDS011;4820;50.870;4.702;2023-04-24T00:46:49;15.40;;;10.63;;
9563;SDS011;4820;50.870;4.702;2023-04-24T00:49:19;16.15;;;10.98;;
9563;SDS011;4820;50.870;4.702;2023-04-24T00:51:45;15.30;;;10.48;;
9563;SDS011;4820;50.870;4.702;2023-04-24T00:54:15;12.35;;;10.10;;
9563;SDS011;4820;50.870;4.702;2023-04-24T00:56:41;12.80;;;10.40;;
9563;SDS011;4820;50.870;4.702;2023-04-24T00:59:08;16.08;;;10.10;;
9563;SDS011;4820;50.870;4.702;2023-04-24T01:01:34;14.10;;;10.00;;
9563;SDS011;4820;50.870;4.702;2023-04-24T01:04:00;14.05;;;10.95;;
9563;SDS011;4820;50.870;4.702;2023-04-24T01:06:27;14.30;;;10.80;;
9563;SDS011;4820;50.870;4.702;2023-04-24T01:08:56;14.25;;;10.35;;
9563;SDS011;4820;50.870;4.702;2023-04-24T01:11:23;15.65;;;10.73;;
9563;SDS011;4820;50.870;4.702;2023-04-24T01:13:50;14.32;;;10.98;;
9563;SDS011;4820;50.870;4.702;2023-04-24T01:16:19;14.25;;;10.23;;
9563;SDS011;4820;50.870;4.702;2023-04-24T01:18:46;17.38;;;10.90;;
9563;SDS011;4820;50.870;4.702;2023-04-24T01:21:13;14.63;;;9.95;;
9563;SDS011;4820;50.870;4.702;2023-04-24T01:23:42;11.23;;;9.93;;
9563;SDS011;4820;50.870;4.702;2023-04-24T01:26:08;13.73;;;10.40;;
9563;SDS011;4820;50.870;4.702;2023-04-24T01:28:35;15.38;;;10.60;;
9563;SDS011;4820;50.870;4.702;2023-04-24T01:31:01;12.63;;;10.25;;
9563;SDS011;4820;50.870;4.702;2023-04-24T01:33:27;13.93;;;9.93;;
9563;SDS011;4820;50.870;4.702;2023-04-24T01:35:53;11.52;;;9.77;;
9563;SDS011;4820;50.870;4.702;2023-04-24T01:38:23;11.02;;;9.43;;
9563;SDS011;4820;50.870;4.702;2023-04-24T01:40:49;10.98;;;9.18;;
9563;SDS011;4820;50.870;4.702;2023-04-24T01:43:16;11.90;;;8.90;;
9563;SDS011;4820;50.870;4.702;2023-04-24T01:45:42;11.48;;;8.98;;
9563;SDS011;4820;50.870;4.702;2023-04-24T01:48:07;10.85;;;8.77;;
9563;SDS011;4820;50.870;4.702;2023-04-24T01:50:33;14.98;;;9.68;;
9563;SDS011;4820;50.870;4.702;2023-04-24T01:52:59;11.48;;;9.18;;
9563;SDS011;4820;50.870;4.702;2023-04-24T01:55:25;10.98;;;8.88;;
9563;SDS011;4820;50.870;4.702;2023-04-24T01:57:52;11.65;;;9.15;;
9563;SDS011;4820;50.870;4.702;2023-04-24T02:00:20;10.80;;;8.90;;
9563;SDS011;4820;50.870;4.702;2023-04-24T02:02:45;12.45;;;8.88;;
9563;SDS011;4820;50.870;4.702;2023-04-24T02:05:11;10.82;;;8.85;;
9563;SDS011;4820;50.870;4.702;2023-04-24T02:07:37;9.48;;;8.02;;
9563;SDS011;4820;50.870;4.702;2023-04-24T02:10:03;9.63;;;8.13;;
9563;SDS011;4820;50.870;4.702;2023-04-24T02:12:29;10.13;;;8.50;;
9563;SDS011;4820;50.870;4.702;2023-04-24T02:14:55;10.02;;;9.00;;
9563;SDS011;4820;50.870;4.702;2023-04-24T02:17:21;10.75;;;9.13;;
9563;SDS011;4820;50.870;4.702;2023-04-24T02:19:47;11.35;;;9.05;;
9563;SDS011;4820;50.870;4.702;2023-04-24T02:22:13;11.52;;;9.13;;
9563;SDS011;4820;50.870;4.702;2023-04-24T02:24:39;9.90;;;8.65;;
9563;SDS011;4820;50.870;4.702;2023-04-24T02:27:04;10.57;;;9.52;;
9563;SDS011;4820;50.870;4.702;2023-04-24T02:29:30;13.05;;;10.40;;
9563;SDS011;4820;50.870;4.702;2023-04-24T02:31:56;10.85;;;9.73;;
9563;SDS011;4820;50.870;4.702;2023-04-24T02:34:22;13.52;;;10.38;;
9563;SDS011;4820;50.870;4.702;2023-04-24T02:36:48;14.43;;;10.30;;
9563;SDS011;4820;50.870;4.702;2023-04-24T02:39:14;12.35;;;10.18;;
9563;SDS011;4820;50.870;4.702;2023-04-24T02:41:41;12.07;;;10.68;;
9563;SDS011;4820;50.870;4.702;2023-04-24T02:44:08;12.00;;;10.80;;
9563;SDS011;4820;50.870;4.702;2023-04-24T02:46:33;11.88;;;9.98;;
9563;SDS011;4820;50.870;4.702;2023-04-24T02:48:59;12.35;;;11.00;;
9563;SDS011;4820;50.870;4.702;2023-04-24T02:51:25;12.73;;;11.13;;
9563;SDS011;4820;50.870;4.702;2023-04-24T02:53:51;12.52;;;11.20;;
9563;SDS011;4820;50.870;4.702;2023-04-24T02:56:17;14.95;;;10.70;;
9563;SDS011;4820;50.870;4.702;2023-04-24T02:58:43;12.65;;;10.93;;
9563;SDS011;4820;50.870;4.702;2023-04-24T03:01:09;13.43;;;10.20;;
9563;SDS011;4820;50.870;4.702;2023-04-24T03:03:35;11.95;;;10.52;;
9563;SDS011;4820;50.870;4.702;2023-04-24T03:06:01;11.57;;;10.38;;
9563;SDS011;4820;50.870;4.702;2023-04-24T03:08:27;14.25;;;10.05;;
9563;SDS011;4820;50.870;4.702;2023-04-24T03:10:53;12.35;;;10.00;;
9563;SDS011;4820;50.870;4.702;2023-04-24T03:13:18;11.57;;;9.50;;
9563;SDS011;4820;50.870;4.702;2023-04-24T03:15:44;10.25;;;9.25;;
9563;SDS011;4820;50.870;4.702;2023-04-24T03:18:11;10.70;;;8.85;;
9563;SDS011;4820;50.870;4.702;2023-04-24T03:20:37;9.93;;;8.90;;
9563;SDS011;4820;50.870;4.702;2023-04-24T03:23:03;11.02;;;8.82;;
9563;SDS011;4820;50.870;4.702;2023-04-24T03:25:28;10.50;;;8.65;;
9563;SDS011;4820;50.870;4.702;2023-04-24T03:27:54;9.25;;;8.07;;
9563;SDS011;4820;50.870;4.702;2023-04-24T03:30:20;10.43;;;8.52;;
9563;SDS011;4820;50.870;4.702;2023-04-24T03:32:46;9.80;;;8.05;;
9563;SDS011;4820;50.870;4.702;2023-04-24T03:35:11;9.25;;;8.27;;
9563;SDS011;4820;50.870;4.702;2023-04-24T03:37:37;10.57;;;8.25;;
9563;SDS011;4820;50.870;4.702;2023-04-24T03:40:03;11.18;;;8.32;;
9563;SDS011;4820;50.870;4.702;2023-04-24T03:42:31;9.93;;;8.15;;
9563;SDS011;4820;50.870;4.702;2023-04-24T03:44:56;9.80;;;7.88;;
9563;SDS011;4820;50.870;4.702;2023-04-24T03:47:22;9.55;;;8.00;;
9563;SDS011;4820;50.870;4.702;2023-04-24T03:49:48;10.52;;;8.02;;
9563;SDS011;4820;50.870;4.702;2023-04-24T03:52:13;11.70;;;8.40;;
9563;SDS011;4820;50.870;4.702;2023-04-24T03:54:39;10.25;;;8.30;;
9563;SDS011;4820;50.870;4.702;2023-04-24T03:57:05;9.13;;;7.93;;
9563;SDS011;4820;50.870;4.702;2023-04-24T03:59:30;9.73;;;8.25;;
9563;SDS011;4820;50.870;4.702;2023-04-24T04:01:56;9.52;;;8.63;;
9563;SDS011;4820;50.870;4.702;2023-04-24T04:04:22;9.13;;;7.85;;
9563;SDS011;4820;50.870;4.702;2023-04-24T04:06:47;9.38;;;7.40;;
9563;SDS011;4820;50.870;4.702;2023-04-24T04:09:14;7.50;;;6.70;;
9563;SDS011;4820;50.870;4.702;2023-04-24T04:11:40;7.78;;;6.97;;
9563;SDS011;4820;50.870;4.702;2023-04-24T04:14:05;8.05;;;6.30;;
9563;SDS011;4820;50.870;4.702;2023-04-24T04:16:31;7.80;;;6.20;;
9563;SDS011;4820;50.870;4.702;2023-04-24T04:18:57;6.32;;;5.70;;
9563;SDS011;4820;50.870;4.702;2023-04-24T04:21:23;5.75;;;5.03;;
9563;SDS011;4820;50.870;4.702;2023-04-24T04:23:49;9.93;;;5.18;;
9563;SDS011;4820;50.870;4.702;2023-04-24T04:26:14;6.95;;;4.85;;
9563;SDS011;4820;50.870;4.702;2023-04-24T04:28:40;4.82;;;4.40;;
9563;SDS011;4820;50.870;4.702;2023-04-24T04:31:06;5.43;;;4.90;;
9563;SDS011;4820;50.870;4.702;2023-04-24T04:33:33;5.82;;;4.72;;
9563;SDS011;4820;50.870;4.702;2023-04-24T04:35:59;4.82;;;4.15;;
9563;SDS011;4820;50.870;4.702;2023-04-24T04:38:25;5.15;;;4.47;;
9563;SDS011;4820;50.870;4.702;2023-04-24T04:40:55;6.72;;;4.72;;
9563;SDS011;4820;50.870;4.702;2023-04-24T04:43:22;5.20;;;4.43;;
9563;SDS011;4820;50.870;4.702;2023-04-24T04:45:49;5.30;;;4.07;;
9563;SDS011;4820;50.870;4.702;2023-04-24T04:48:16;5.63;;;4.50;;
9563;SDS011;4820;50.870;4.702;2023-04-24T04:50:43;4.53;;;3.97;;
9563;SDS011;4820;50.870;4.702;2023-04-24T04:53:09;4.88;;;3.80;;
9563;SDS011;4820;50.870;4.702;2023-04-24T04:55:35;4.53;;;4.13;;
9563;SDS011;4820;50.870;4.702;2023-04-24T04:58:01;4.00;;;3.60;;
9563;SDS011;4820;50.870;4.702;2023-04-24T05:00:27;4.50;;;4.07;;
9563;SDS011;4820;50.870;4.702;2023-04-24T05:02:58;4.60;;;4.20;;
9563;SDS011;4820;50.870;4.702;2023-04-24T05:05:24;5.60;;;4.63;;
9563;SDS011;4820;50.870;4.702;2023-04-24T05:07:50;5.78;;;4.20;;
9563;SDS011;4820;50.870;4.702;2023-04-24T05:10:15;4.70;;;4.18;;
9563;SDS011;4820;50.870;4.702;2023-04-24T05:12:41;5.88;;;5.30;;
9563;SDS011;4820;50.870;4.702;2023-04-24T05:15:07;8.88;;;5.65;;
9563;SDS011;4820;50.870;4.702;2023-04-24T05:17:33;8.15;;;5.53;;
9563;SDS011;4820;50.870;4.702;2023-04-24T05:19:59;7.60;;;5.95;;
9563;SDS011;4820;50.870;4.702;2023-04-24T05:22:25;8.23;;;6.05;;
9563;SDS011;4820;50.870;4.702;2023-04-24T05:24:51;7.53;;;5.97;;
9563;SDS011;4820;50.870;4.702;2023-04-24T05:27:17;7.68;;;6.07;;
9563;SDS011;4820;50.870;4.702;2023-04-24T05:29:42;7.90;;;6.30;;
9563;SDS011;4820;50.870;4.702;2023-04-24T05:32:08;7.13;;;6.43;;
9563;SDS011;4820;50.870;4.702;2023-04-24T05:34:34;7.93;;;5.90;;
9563;SDS011;4820;50.870;4.702;2023-04-24T05:37:00;7.32;;;6.20;;
9563;SDS011;4820;50.870;4.702;2023-04-24T05:39:26;8.93;;;6.75;;
9563;SDS011;4820;50.870;4.702;2023-04-24T05:41:52;8.75;;;6.75;;
9563;SDS011;4820;50.870;4.702;2023-04-24T05:44:17;9.45;;;6.43;;
9563;SDS011;4820;50.870;4.702;2023-04-24T05:46:43;7.75;;;6.90;;
9563;SDS011;4820;50.870;4.702;2023-04-24T05:49:09;8.10;;;6.80;;
9563;SDS011;4820;50.870;4.702;2023-04-24T05:51:35;9.73;;;6.80;;
9563;SDS011;4820;50.870;4.702;2023-04-24T05:54:00;9.00;;;6.88;;
9563;SDS011;4820;50.870;4.702;2023-04-24T05:56:28;8.88;;;7.13;;
9563;SDS011;4820;50.870;4.702;2023-04-24T05:58:54;11.10;;;7.45;;
9563;SDS011;4820;50.870;4.702;2023-04-24T06:01:20;10.07;;;6.80;;
9563;SDS011;4820;50.870;4.702;2023-04-24T06:03:46;9.20;;;7.43;;
9563;SDS011;4820;50.870;4.702;2023-04-24T06:06:12;11.60;;;7.68;;
9563;SDS011;4820;50.870;4.702;2023-04-24T06:08:37;11.85;;;7.53;;
9563;SDS011;4820;50.870;4.702;2023-04-24T06:11:03;10.32;;;8.82;;
9563;SDS011;4820;50.870;4.702;2023-04-24T06:13:29;9.75;;;7.60;;
9563;SDS011;4820;50.870;4.702;2023-04-24T06:15:54;10.07;;;8.10;;
9563;SDS011;4820;50.870;4.702;2023-04-24T06:18:20;11.07;;;8.13;;
9563;SDS011;4820;50.870;4.702;2023-04-24T06:20:46;9.80;;;8.50;;
9563;SDS011;4820;50.870;4.702;2023-04-24T06:23:12;10.10;;;8.38;;
9563;SDS011;4820;50.870;4.702;2023-04-24T06:25:38;11.55;;;9.10;;
9563;SDS011;4820;50.870;4.702;2023-04-24T06:28:04;11.18;;;8.95;;
9563;SDS011;4820;50.870;4.702;2023-04-24T06:30:30;13.05;;;9.00;;
9563;SDS011;4820;50.870;4.702;2023-04-24T06:32:56;11.95;;;9.32;;
9563;SDS011;4820;50.870;4.702;2023-04-24T06:35:22;12.45;;;9.10;;
9563;SDS011;4820;50.870;4.702;2023-04-24T06:37:47;12.45;;;9.20;;
9563;SDS011;4820;50.870;4.702;2023-04-24T06:40:13;10.35;;;9.35;;
9563;SDS011;4820;50.870;4.702;2023-04-24T06:42:39;12.63;;;9.63;;
9563;SDS011;4820;50.870;4.702;2023-04-24T06:45:05;12.60;;;9.40;;
9563;SDS011;4820;50.870;4.702;2023-04-24T06:47:31;15.93;;;9.00;;
9563;SDS011;4820;50.870;4.702;2023-04-24T06:49:57;13.30;;;9.88;;
9563;SDS011;4820;50.870;4.702;2023-04-24T06:52:23;12.80;;;9.55;;
9563;SDS011;4820;50.870;4.702;2023-04-24T06:54:48;11.45;;;9.65;;
9563;SDS011;4820;50.870;4.702;2023-04-24T06:57:14;15.20;;;10.18;;
9563;SDS011;4820;50.870;4.702;2023-04-24T06:59:41;12.38;;;9.93;;
9563;SDS011;4820;50.870;4.702;2023-04-24T07:02:07;11.90;;;10.20;;
9563;SDS011;4820;50.870;4.702;2023-04-24T07:04:33;12.05;;;9.75;;
9563;SDS011;4820;50.870;4.702;2023-04-24T07:06:59;15.43;;;11.40;;
9563;SDS011;4820;50.870;4.702;2023-04-24T07:09:25;14.52;;;11.25;;
9563;SDS011;4820;50.870;4.702;2023-04-24T07:11:52;15.68;;;12.07;;
9563;SDS011;4820;50.870;4.702;2023-04-24T07:14:18;15.85;;;11.93;;
9563;SDS011;4820;50.870;4.702;2023-04-24T07:16:45;16.17;;;11.18;;
9563;SDS011;4820;50.870;4.702;2023-04-24T07:19:12;14.40;;;11.10;;
9563;SDS011;4820;50.870;4.702;2023-04-24T07:21:39;16.10;;;11.45;;
9563;SDS011;4820;50.870;4.702;2023-04-24T07:24:04;17.27;;;11.27;;
9563;SDS011;4820;50.870;4.702;2023-04-24T07:26:34;15.25;;;11.45;;
9563;SDS011;4820;50.870;4.702;2023-04-24T07:28:59;15.40;;;11.50;;
9563;SDS011;4820;50.870;4.702;2023-04-24T07:31:25;14.00;;;11.02;;
9563;SDS011;4820;50.870;4.702;2023-04-24T07:33:51;18.50;;;11.82;;
9563;SDS011;4820;50.870;4.702;2023-04-24T07:36:17;16.13;;;12.07;;
9563;SDS011;4820;50.870;4.702;2023-04-24T07:38:47;14.10;;;10.70;;
9563;SDS011;4820;50.870;4.702;2023-04-24T07:41:13;16.60;;;11.18;;
9563;SDS011;4820;50.870;4.702;2023-04-24T07:43:39;17.00;;;11.50;;
9563;SDS011;4820;50.870;4.702;2023-04-24T07:46:06;17.80;;;11.55;;
9563;SDS011;4820;50.870;4.702;2023-04-24T07:48:33;13.90;;;10.50;;
9563;SDS011;4820;50.870;4.702;2023-04-24T07:50:58;16.10;;;10.82;;
9563;SDS011;4820;50.870;4.702;2023-04-24T07:53:24;17.23;;;11.25;;
9563;SDS011;4820;50.870;4.702;2023-04-24T07:55:50;14.50;;;10.32;;
9563;SDS011;4820;50.870;4.702;2023-04-24T07:58:16;14.77;;;10.43;;
9563;SDS011;4820;50.870;4.702;2023-04-24T08:00:42;12.23;;;9.80;;
9563;SDS011;4820;50.870;4.702;2023-04-24T08:03:07;15.68;;;10.15;;
9563;SDS011;4820;50.870;4.702;2023-04-24T08:05:33;15.63;;;9.13;;
9563;SDS011;4820;50.870;4.702;2023-04-24T08:07:59;14.48;;;8.93;;
9563;SDS011;4820;50.870;4.702;2023-04-24T08:10:24;13.32;;;8.63;;
9563;SDS011;4820;50.870;4.702;2023-04-24T08:12:50;11.38;;;7.68;;
9563;SDS011;4820;50.870;4.702;2023-04-24T08:15:16;14.93;;;8.20;;
9563;SDS011;4820;50.870;4.702;2023-04-24T08:17:42;10.77;;;7.03;;
9563;SDS011;4820;50.870;4.702;2023-04-24T08:20:08;10.82;;;7.40;;
9563;SDS011;4820;50.870;4.702;2023-04-24T08:22:38;12.90;;;7.35;;
9563;SDS011;4820;50.870;4.702;2023-04-24T08:25:05;12.77;;;7.03;;
9563;SDS011;4820;50.870;4.702;2023-04-24T08:27:31;10.57;;;6.82;;
9563;SDS011;4820;50.870;4.702;2023-04-24T08:29:57;13.30;;;7.13;;
9563;SDS011;4820;50.870;4.702;2023-04-24T08:32:26;12.43;;;6.97;;
9563;SDS011;4820;50.870;4.702;2023-04-24T08:34:55;11.32;;;6.63;;
9563;SDS011;4820;50.870;4.702;2023-04-24T08:37:21;9.90;;;6.82;;
9563;SDS011;4820;50.870;4.702;2023-04-24T08:39:48;9.85;;;6.78;;
9563;SDS011;4820;50.870;4.702;2023-04-24T08:42:15;11.07;;;7.60;;
9563;SDS011;4820;50.870;4.702;2023-04-24T08:44:42;12.18;;;7.47;;
9563;SDS011;4820;50.870;4.702;2023-04-24T08:47:09;11.98;;;7.40;;
9563;SDS011;4820;50.870;4.702;2023-04-24T08:49:36;12.07;;;7.32;;
9563;SDS011;4820;50.870;4.702;2023-04-24T08:52:03;9.55;;;6.40;;
9563;SDS011;4820;50.870;4.702;2023-04-24T08:54:30;8.68;;;6.13;;
9563;SDS011;4820;50.870;4.702;2023-04-24T08:57:00;10.43;;;6.50;;
9563;SDS011;4820;50.870;4.702;2023-04-24T08:59:29;12.52;;;6.45;;
9563;SDS011;4820;50.870;4.702;2023-04-24T09:01:56;9.82;;;5.50;;
9563;SDS011;4820;50.870;4.702;2023-04-24T09:04:22;9.57;;;5.78;;
9563;SDS011;4820;50.870;4.702;2023-04-24T09:06:55;8.18;;;5.15;;
9563;SDS011;4820;50.870;4.702;2023-04-24T09:09:24;10.15;;;5.47;;
9563;SDS011;4820;50.870;4.702;2023-04-24T09:11:50;12.18;;;6.35;;
9563;SDS011;4820;50.870;4.702;2023-04-24T09:14:19;10.20;;;5.22;;
9563;SDS011;4820;50.870;4.702;2023-04-24T09:16:45;9.02;;;5.95;;
9563;SDS011;4820;50.870;4.702;2023-04-24T09:19:12;11.02;;;5.30;;
9563;SDS011;4820;50.870;4.702;2023-04-24T09:21:37;8.80;;;4.90;;
9563;SDS011;4820;50.870;4.702;2023-04-24T09:24:05;12.02;;;5.82;;
9563;SDS011;4820;50.870;4.702;2023-04-24T09:26:33;14.05;;;6.90;;
9563;SDS011;4820;50.870;4.702;2023-04-24T09:29:01;9.82;;;5.50;;
9563;SDS011;4820;50.870;4.702;2023-04-24T09:31:28;9.07;;;4.53;;
9563;SDS011;4820;50.870;4.702;2023-04-24T09:33:58;9.98;;;4.40;;
9563;SDS011;4820;50.870;4.702;2023-04-24T09:36:29;10.75;;;5.00;;
9563;SDS011;4820;50.870;4.702;2023-04-24T09:38:58;9.43;;;5.20;;
9563;SDS011;4820;50.870;4.702;2023-04-24T09:41:27;9.25;;;4.97;;
9563;SDS011;4820;50.870;4.702;2023-04-24T09:43:56;9.18;;;4.63;;
9563;SDS011;4820;50.870;4.702;2023-04-24T09:46:29;8.70;;;4.38;;
9563;SDS011;4820;50.870;4.702;2023-04-24T09:48:56;7.82;;;4.57;;
9563;SDS011;4820;50.870;4.702;2023-04-24T09:51:33;6.97;;;3.97;;
9563;SDS011;4820;50.870;4.702;2023-04-24T09:54:01;8.57;;;4.00;;
9563;SDS011;4820;50.870;4.702;2023-04-24T09:56:27;6.50;;;3.85;;
9563;SDS011;4820;50.870;4.702;2023-04-24T09:58:53;6.60;;;4.22;;
9563;SDS011;4820;50.870;4.702;2023-04-24T10:01:40;6.95;;;3.58;;
9563;SDS011;4820;50.870;4.702;2023-04-24T10:04:17;6.57;;;3.75;;
9563;SDS011;4820;50.870;4.702;2023-04-24T10:06:49;8.55;;;3.67;;
9563;SDS011;4820;50.870;4.702;2023-04-24T10:09:16;6.55;;;3.65;;
9563;SDS011;4820;50.870;4.702;2023-04-24T10:11:44;7.35;;;3.85;;
9563;SDS011;4820;50.870;4.702;2023-04-24T10:14:15;7.95;;;3.60;;
9563;SDS011;4820;50.870;4.702;2023-04-24T10:16:48;6.35;;;3.50;;
9563;SDS011;4820;50.870;4.702;2023-04-24T10:19:15;8.07;;;3.70;;
9563;SDS011;4820;50.870;4.702;2023-04-24T10:21:43;8.07;;;4.20;;
9563;SDS011;4820;50.870;4.702;2023-04-24T10:24:13;8.27;;;3.90;;
9563;SDS011;4820;50.870;4.702;2023-04-24T10:26:45;7.70;;;3.95;;
9563;SDS011;4820;50.870;4.702;2023-04-24T10:29:13;6.75;;;3.85;;
9563;SDS011;4820;50.870;4.702;2023-04-24T10:31:40;4.97;;;3.55;;
9563;SDS011;4820;50.870;4.702;2023-04-24T10:34:07;6.25;;;3.65;;
9563;SDS011;4820;50.870;4.702;2023-04-24T10:36:34;5.22;;;3.30;;
9563;SDS011;4820;50.870;4.702;2023-04-24T10:39:05;6.65;;;3.55;;
9563;SDS011;4820;50.870;4.702;2023-04-24T10:41:33;5.22;;;3.25;;
9563;SDS011;4820;50.870;4.702;2023-04-24T10:46:32;6.32;;;3.75;;
9563;SDS011;4820;50.870;4.702;2023-04-24T10:48:58;6.65;;;3.88;;
9563;SDS011;4820;50.870;4.702;2023-04-24T10:51:24;6.00;;;3.85;;
9563;SDS011;4820;50.870;4.702;2023-04-24T10:59:43;6.38;;;3.40;;
9563;SDS011;4820;50.870;4.702;2023-04-24T11:02:09;6.00;;;3.22;;
9563;SDS011;4820;50.870;4.702;2023-04-24T11:04:35;5.32;;;3.47;;
9563;SDS011;4820;50.870;4.702;2023-04-24T11:07:02;7.00;;;3.80;;
9563;SDS011;4820;50.870;4.702;2023-04-24T11:09:28;7.00;;;3.65;;
9563;SDS011;4820;50.870;4.702;2023-04-24T11:12:06;7.18;;;3.60;;
9563;SDS011;4820;50.870;4.702;2023-04-24T11:17:32;5.47;;;3.40;;
9563;SDS011;4820;50.870;4.702;2023-04-24T11:20:09;8.65;;;3.90;;
9563;SDS011;4820;50.870;4.702;2023-04-24T11:22:37;8.25;;;4.25;;
9563;SDS011;4820;50.870;4.702;2023-04-24T11:25:07;6.22;;;4.07;;
9563;SDS011;4820;50.870;4.702;2023-04-24T11:27:43;6.32;;;3.85;;
9563;SDS011;4820;50.870;4.702;2023-04-24T11:30:11;7.75;;;3.88;;
9563;SDS011;4820;50.870;4.702;2023-04-24T11:32:42;4.55;;;3.50;;
9563;SDS011;4820;50.870;4.702;2023-04-24T11:35:13;9.60;;;3.95;;
9563;SDS011;4820;50.870;4.702;2023-04-24T11:37:43;7.13;;;3.65;;
9563;SDS011;4820;50.870;4.702;2023-04-24T11:40:17;6.80;;;4.00;;
9563;SDS011;4820;50.870;4.702;2023-04-24T11:42:48;6.32;;;3.78;;
9563;SDS011;4820;50.870;4.702;2023-04-24T11:45:16;6.22;;;4.00;;
9563;SDS011;4820;50.870;4.702;2023-04-24T11:47:44;6.60;;;4.00;;
9563;SDS011;4820;50.870;4.702;2023-04-24T11:50:12;6.47;;;4.10;;
9563;SDS011;4820;50.870;4.702;2023-04-24T11:52:43;6.28;;;3.88;;
9563;SDS011;4820;50.870;4.702;2023-04-24T11:57:42;9.73;;;3.75;;
9563;SDS011;4820;50.870;4.702;2023-04-24T12:00:15;7.60;;;4.20;;
9563;SDS011;4820;50.870;4.702;2023-04-24T12:02:43;5.90;;;3.90;;
9563;SDS011;4820;50.870;4.702;2023-04-24T12:05:09;8.00;;;3.92;;
9563;SDS011;4820;50.870;4.702;2023-04-24T12:07:45;5.10;;;3.85;;
9563;SDS011;4820;50.870;4.702;2023-04-24T12:10:10;6.18;;;4.38;;
9563;SDS011;4820;50.870;4.702;2023-04-24T12:12:36;4.90;;;3.70;;
9563;SDS011;4820;50.870;4.702;2023-04-24T12:15:06;5.68;;;4.20;;
9563;SDS011;4820;50.870;4.702;2023-04-24T12:17:33;5.88;;;4.07;;
9563;SDS011;4820;50.870;4.702;2023-04-24T12:20:01;7.53;;;4.10;;
9563;SDS011;4820;50.870;4.702;2023-04-24T12:25:11;6.28;;;3.90;;
9563;SDS011;4820;50.870;4.702;2023-04-24T12:27:37;4.85;;;3.75;;
9563;SDS011;4820;50.870;4.702;2023-04-24T12:30:03;5.20;;;4.22;;
9563;SDS011;4820;50.870;4.702;2023-04-24T12:32:30;5.82;;;4.38;;
9563;SDS011;4820;50.870;4.702;2023-04-24T12:34:56;6.32;;;3.80;;
9563;SDS011;4820;50.870;4.702;2023-04-24T12:37:26;6.15;;;4.10;;
9563;SDS011;4820;50.870;4.702;2023-04-24T12:40:07;5.95;;;4.50;;
9563;SDS011;4820;50.870;4.702;2023-04-24T12:42:47;6.00;;;4.00;;
9563;SDS011;4820;50.870;4.702;2023-04-24T12:45:14;6.07;;;4.00;;
9563;SDS011;4820;50.870;4.702;2023-04-24T12:47:41;6.70;;;3.90;;
9563;SDS011;4820;50.870;4.702;2023-04-24T12:50:08;5.90;;;3.92;;
9563;SDS011;4820;50.870;4.702;2023-04-24T12:52:35;4.45;;;4.03;;
9563;SDS011;4820;50.870;4.702;2023-04-24T12:55:01;6.80;;;4.07;;
9563;SDS011;4820;50.870;4.702;2023-04-24T12:57:28;6.28;;;3.80;;
9563;SDS011;4820;50.870;4.702;2023-04-24T12:59:55;5.88;;;3.60;;
9563;SDS011;4820;50.870;4.702;2023-04-24T13:02:25;4.90;;;3.50;;
9563;SDS011;4820;50.870;4.702;2023-04-24T13:04:53;3.80;;;3.40;;
9563;SDS011;4820;50.870;4.702;2023-04-24T13:07:19;6.70;;;4.00;;
9563;SDS011;4820;50.870;4.702;2023-04-24T13:09:44;4.68;;;3.60;;
9563;SDS011;4820;50.870;4.702;2023-04-24T13:12:11;5.20;;;3.75;;
9563;SDS011;4820;50.870;4.702;2023-04-24T13:14:38;5.72;;;3.53;;
9563;SDS011;4820;50.870;4.702;2023-04-24T13:17:04;3.85;;;3.42;;
9563;SDS011;4820;50.870;4.702;2023-04-24T13:19:34;4.20;;;3.10;;
9563;SDS011;4820;50.870;4.702;2023-04-24T13:22:05;4.60;;;3.38;;
9563;SDS011;4820;50.870;4.702;2023-04-24T13:24:31;4.53;;;3.70;;
9563;SDS011;4820;50.870;4.702;2023-04-24T13:26:57;5.07;;;3.78;;
9563;SDS011;4820;50.870;4.702;2023-04-24T13:29:25;6.07;;;3.80;;
9563;SDS011;4820;50.870;4.702;2023-04-24T13:31:51;6.30;;;3.55;;
9563;SDS011;4820;50.870;4.702;2023-04-24T13:34:19;6.10;;;3.63;;
9563;SDS011;4820;50.870;4.702;2023-04-24T13:36:44;5.00;;;3.47;;
9563;SDS011;4820;50.870;4.702;2023-04-24T13:39:11;5.90;;;3.20;;
9563;SDS011;4820;50.870;4.702;2023-04-24T13:41:36;5.43;;;3.10;;
9563;SDS011;4820;50.870;4.702;2023-04-24T13:44:03;5.10;;;3.47;;
9563;SDS011;4820;50.870;4.702;2023-04-24T13:46:29;5.72;;;2.90;;
9563;SDS011;4820;50.870;4.702;2023-04-24T13:48:56;3.75;;;2.97;;
9563;SDS011;4820;50.870;4.702;2023-04-24T13:51:22;3.65;;;2.60;;
9563;SDS011;4820;50.870;4.702;2023-04-24T13:53:51;7.35;;;2.60;;
9563;SDS011;4820;50.870;4.702;2023-04-24T13:56:17;3.53;;;2.58;;
9563;SDS011;4820;50.870;4.702;2023-04-24T13:58:43;6.38;;;2.80;;
9563;SDS011;4820;50.870;4.702;2023-04-24T14:01:09;4.45;;;2.60;;
9563;SDS011;4820;50.870;4.702;2023-04-24T14:03:35;4.60;;;3.05;;
9563;SDS011;4820;50.870;4.702;2023-04-24T14:06:02;5.50;;;3.30;;
9563;SDS011;4820;50.870;4.702;2023-04-24T14:08:28;5.05;;;2.90;;
9563;SDS011;4820;50.870;4.702;2023-04-24T14:10:54;5.32;;;3.00;;
9563;SDS011;4820;50.870;4.702;2023-04-24T14:13:19;4.30;;;3.17;;
9563;SDS011;4820;50.870;4.702;2023-04-24T14:15:45;5.10;;;3.33;;
9563;SDS011;4820;50.870;4.702;2023-04-24T14:18:11;8.10;;;3.47;;
9563;SDS011;4820;50.870;4.702;2023-04-24T14:20:37;5.50;;;2.90;;
9563;SDS011;4820;50.870;4.702;2023-04-24T14:23:03;4.13;;;3.10;;
9563;SDS011;4820;50.870;4.702;2023-04-24T14:25:30;10.75;;;2.55;;
9563;SDS011;4820;50.870;4.702;2023-04-24T14:27:56;4.70;;;2.72;;
9563;SDS011;4820;50.870;4.702;2023-04-24T14:30:22;4.20;;;2.47;;
9563;SDS011;4820;50.870;4.702;2023-04-24T14:32:48;4.55;;;2.60;;
9563;SDS011;4820;50.870;4.702;2023-04-24T14:35:13;5.18;;;2.70;;
9563;SDS011;4820;50.870;4.702;2023-04-24T14:37:39;3.55;;;2.53;;
9563;SDS011;4820;50.870;4.702;2023-04-24T14:40:08;3.78;;;2.40;;
9563;SDS011;4820;50.870;4.702;2023-04-24T14:42:34;3.45;;;2.35;;
9563;SDS011;4820;50.870;4.702;2023-04-24T14:45:00;6.85;;;2.85;;
9563;SDS011;4820;50.870;4.702;2023-04-24T14:47:26;4.32;;;2.42;;
9563;SDS011;4820;50.870;4.702;2023-04-24T14:49:52;3.00;;;2.05;;
9563;SDS011;4820;50.870;4.702;2023-04-24T14:52:18;3.25;;;1.90;;
9563;SDS011;4820;50.870;4.702;2023-04-24T14:54:44;3.85;;;2.17;;
9563;SDS011;4820;50.870;4.702;2023-04-24T14:57:10;3.22;;;2.38;;
9563;SDS011;4820;50.870;4.702;2023-04-24T14:59:36;4.00;;;2.35;;
9563;SDS011;4820;50.870;4.702;2023-04-24T15:02:01;5.15;;;2.17;;
9563;SDS011;4820;50.870;4.702;2023-04-24T15:04:27;4.75;;;2.17;;
9563;SDS011;4820;50.870;4.702;2023-04-24T15:06:54;4.30;;;2.30;;
9563;SDS011;4820;50.870;4.702;2023-04-24T15:09:20;3.67;;;2.20;;
9563;SDS011;4820;50.870;4.702;2023-04-24T15:11:47;4.72;;;2.40;;
9563;SDS011;4820;50.870;4.702;2023-04-24T15:14:14;4.55;;;2.80;;
9563;SDS011;4820;50.870;4.702;2023-04-24T15:16:40;5.00;;;2.65;;
9563;SDS011;4820;50.870;4.702;2023-04-24T15:19:06;5.00;;;2.90;;
9563;SDS011;4820;50.870;4.702;2023-04-24T15:21:32;4.82;;;2.80;;